sensor_id;sensor_type;location;lat;lon;timestamp;pressure;altitude;pressure_sealevel;temperature;humidity
49341;BME280;35209;51.050;13.678;2024-02-15T00:02:39;150741.91;;;8.23;100.00
49341;BME280;35209;51.050;13.678;2024-02-15T00:07:41;150707.13;;;8.09;100.00
49341;BME280;35209;51.050;13.678;2024-02-15T00:12:43;150734.22;;;8.20;100.00
49341;BME280;35209;51.050;13.678;2024-02-15T00:17:45;150694.25;;;8.04;100.00
49341;BME280;35209;51.050;13.678;2024-02-15T00:22:48;150711.03;;;8.11;100.00
49341;BME280;35209;51.050;13.678;2024-02-15T00:27:51;150749.66;;;8.26;100.00
49341;BME280;35209;51.050;13.678;2024-02-15T00:32:53;150727.75;;;8.18;100.00
49341;BME280;35209;51.050;13.678;2024-02-15T00:37:55;150778.09;;;8.38;100.00
49341;BME280;35209;51.050;13.678;2024-02-15T00:42:58;150781.94;;;8.39;100.00
49341;BME280;35209;51.050;13.678;2024-02-15T00:48:00;150780.66;;;8.39;100.00
49341;BME280;35209;51.050;13.678;2024-02-15T00:53:02;150789.69;;;8.42;100.00
49341;BME280;35209;51.050;13.678;2024-02-15T00:58:04;150781.94;;;8.39;100.00
49341;BME280;35209;51.050;13.678;2024-02-15T01:03:06;150743.25;;;8.24;100.00
49341;BME280;35209;51.050;13.678;2024-02-15T01:08:08;150818.03;;;8.53;100.00
49341;BME280;35209;51.050;13.678;2024-02-15T01:13:10;150843.84;;;8.64;100.00
49341;BME280;35209;51.050;13.678;2024-02-15T01:18:12;150776.81;;;8.37;100.00
49341;BME280;35209;51.050;13.678;2024-02-15T01:23:14;150669.78;;;7.95;100.00
49341;BME280;35209;51.050;13.678;2024-02-15T01:28:15;150682.66;;;8.00;100.00
49341;BME280;35209;51.050;13.678;2024-02-15T01:33:17;150658.19;;;7.90;100.00
49341;BME280;35209;51.050;13.678;2024-02-15T01:38:19;150653.03;;;7.88;100.00
49341;BME280;35209;51.050;13.678;2024-02-15T01:43:21;150685.22;;;8.01;100.00
49341;BME280;35209;51.050;13.678;2024-02-15T01:48:23;150671.06;;;7.95;100.00
49341;BME280;35209;51.050;13.678;2024-02-15T01:53:25;150718.72;;;8.14;100.00
49341;BME280;35209;51.050;13.678;2024-02-15T01:58:27;150797.38;;;8.45;100.00
49341;BME280;35209;51.050;13.678;2024-02-15T02:03:31;150895.38;;;8.84;100.00
49341;BME280;35209;51.050;13.678;2024-02-15T02:08:33;150847.69;;;8.65;100.00
49341;BME280;35209;51.050;13.678;2024-02-15T02:13:35;150765.16;;;8.32;100.00
49341;BME280;35209;51.050;13.678;2024-02-15T02:18:36;150729.03;;;8.18;100.00
49341;BME280;35209;51.050;13.678;2024-02-15T02:23:39;150759.97;;;8.30;100.00
49341;BME280;35209;51.050;13.678;2024-02-15T02:28:41;150725.19;;;8.17;100.00
49341;BME280;35209;51.050;13.678;2024-02-15T02:33:48;150698.16;;;8.06;100.00
49341;BME280;35209;51.050;13.678;2024-02-15T02:38:50;150695.53;;;8.05;100.00
49341;BME280;35209;51.050;13.678;2024-02-15T02:43:52;150723.91;;;8.16;100.00
49341;BME280;35209;51.050;13.678;2024-02-15T02:48:54;150789.69;;;8.42;100.00
49341;BME280;35209;51.050;13.678;2024-02-15T02:53:56;150757.41;;;8.29;100.00
49341;BME280;35209;51.050;13.678;2024-02-15T02:58:58;150681.38;;;7.99;100.00
49341;BME280;35209;51.050;13.678;2024-02-15T03:04:00;150730.31;;;8.19;100.00
49341;BME280;35209;51.050;13.678;2024-02-15T03:09:03;150673.63;;;7.96;100.00
49341;BME280;35209;51.050;13.678;2024-02-15T03:14:09;150669.78;;;7.95;100.00
49341;BME280;35209;51.050;13.678;2024-02-15T03:19:11;150653.03;;;7.88;100.00
49341;BME280;35209;51.050;13.678;2024-02-15T03:24:13;150659.47;;;7.91;100.00
49341;BME280;35209;51.050;13.678;2024-02-15T03:29:15;150709.75;;;8.11;100.00
49341;BME280;35209;51.050;13.678;2024-02-15T03:34:17;150705.84;;;8.09;100.00
49341;BME280;35209;51.050;13.678;2024-02-15T03:39:19;150680.09;;;7.99;100.00
49341;BME280;35209;51.050;13.678;2024-02-15T03:44:23;150655.59;;;7.89;100.00
49341;BME280;35209;51.050;13.678;2024-02-15T03:49:27;150654.31;;;7.89;100.00
49341;BME280;35209;51.050;13.678;2024-02-15T03:54:29;150738.06;;;8.22;100.00
49341;BME280;35209;51.050;13.678;2024-02-15T03:59:31;150689.13;;;8.02;100.00
49341;BME280;35209;51.050;13.678;2024-02-15T04:04:33;150761.25;;;8.31;100.00
49341;BME280;35209;51.050;13.678;2024-02-15T04:09:36;150732.94;;;8.20;100.00
49341;BME280;35209;51.050;13.678;2024-02-15T04:14:38;150686.53;;;8.01;100.00
49341;BME280;35209;51.050;13.678;2024-02-15T04:19:40;150730.31;;;8.19;100.00
49341;BME280;35209;51.050;13.678;2024-02-15T04:24:45;150695.53;;;8.05;100.00
49341;BME280;35209;51.050;13.678;2024-02-15T04:29:47;150698.16;;;8.06;100.00
49341;BME280;35209;51.050;13.678;2024-02-15T04:34:49;150711.03;;;8.11;100.00
49341;BME280;35209;51.050;13.678;2024-02-15T04:39:51;150687.84;;;8.02;100.00
49341;BME280;35209;51.050;13.678;2024-02-15T04:44:53;150748.38;;;8.26;100.00
49341;BME280;35209;51.050;13.678;2024-02-15T04:49:55;150744.53;;;8.24;100.00
49341;BME280;35209;51.050;13.678;2024-02-15T04:54:57;150762.56;;;8.31;100.00
49341;BME280;35209;51.050;13.678;2024-02-15T05:00:03;150762.56;;;8.31;100.00
49341;BME280;35209;51.050;13.678;2024-02-15T05:05:12;150727.75;;;8.18;100.00
49341;BME280;35209;51.050;13.678;2024-02-15T05:10:15;150703.28;;;8.08;100.00
49341;BME280;35209;51.050;13.678;2024-02-15T05:15:17;150770.28;;;8.34;100.00
49341;BME280;35209;51.050;13.678;2024-02-15T05:20:20;150735.50;;;8.21;100.00
49341;BME280;35209;51.050;13.678;2024-02-15T05:25:23;150747.09;;;8.25;100.00
49341;BME280;35209;51.050;13.678;2024-02-15T05:30:27;150723.91;;;8.16;100.00
49341;BME280;35209;51.050;13.678;2024-02-15T05:35:29;150705.84;;;8.09;100.00
49341;BME280;35209;51.050;13.678;2024-02-15T05:40:30;150720.06;;;8.15;100.00
49341;BME280;35209;51.050;13.678;2024-02-15T05:45:33;150776.81;;;8.37;100.00
49341;BME280;35209;51.050;13.678;2024-02-15T05:50:35;150776.81;;;8.37;100.00
49341;BME280;35209;51.050;13.678;2024-02-15T05:55:37;150789.69;;;8.42;100.00
49341;BME280;35209;51.050;13.678;2024-02-15T06:00:42;150744.53;;;8.24;100.00
49341;BME280;35209;51.050;13.678;2024-02-15T06:05:46;150743.25;;;8.24;100.00
49341;BME280;35209;51.050;13.678;2024-02-15T06:10:48;150732.94;;;8.20;100.00
49341;BME280;35209;51.050;13.678;2024-02-15T06:15:52;150745.81;;;8.25;100.00
49341;BME280;35209;51.050;13.678;2024-02-15T06:20:55;150769.00;;;8.34;100.00
49341;BME280;35209;51.050;13.678;2024-02-15T06:26:07;150743.25;;;8.24;100.00
49341;BME280;35209;51.050;13.678;2024-02-15T06:31:10;150747.09;;;8.25;100.00
49341;BME280;35209;51.050;13.678;2024-02-15T06:36:31;150747.09;;;8.25;100.00
49341;BME280;35209;51.050;13.678;2024-02-15T06:41:51;150735.50;;;8.21;100.00
49341;BME280;35209;51.050;13.678;2024-02-15T06:46:54;150781.94;;;8.39;100.00
49341;BME280;35209;51.050;13.678;2024-02-15T06:51:57;150829.63;;;8.58;100.00
49341;BME280;35209;51.050;13.678;2024-02-15T06:57:01;150878.66;;;8.77;100.00
49341;BME280;35209;51.050;13.678;2024-02-15T07:02:03;150803.84;;;8.48;100.00
49341;BME280;35209;51.050;13.678;2024-02-15T07:07:07;150769.00;;;8.34;100.00
49341;BME280;35209;51.050;13.678;2024-02-15T07:12:09;150763.84;;;8.32;100.00
49341;BME280;35209;51.050;13.678;2024-02-15T07:17:11;150772.88;;;8.35;100.00
49341;BME280;35209;51.050;13.678;2024-02-15T07:22:12;150783.22;;;8.40;100.00
49341;BME280;35209;51.050;13.678;2024-02-15T07:27:14;150789.69;;;8.42;100.00
49341;BME280;35209;51.050;13.678;2024-02-15T07:32:16;150892.81;;;8.83;100.00
49341;BME280;35209;51.050;13.678;2024-02-15T07:37:18;150947.00;;;9.04;100.00
49341;BME280;35209;51.050;13.678;2024-02-15T07:42:20;150901.84;;;8.87;100.00
49341;BME280;35209;51.050;13.678;2024-02-15T07:47:22;151020.47;;;9.33;100.00
49341;BME280;35209;51.050;13.678;2024-02-15T07:52:26;150957.31;;;9.08;100.00
49341;BME280;35209;51.050;13.678;2024-02-15T07:57:28;150975.34;;;9.16;100.00
49341;BME280;35209;51.050;13.678;2024-02-15T08:02:30;150985.66;;;9.20;100.00
49341;BME280;35209;51.050;13.678;2024-02-15T08:07:32;151019.19;;;9.33;100.00
49341;BME280;35209;51.050;13.678;2024-02-15T08:12:36;151019.19;;;9.33;100.00
49341;BME280;35209;51.050;13.678;2024-02-15T08:17:39;151109.50;;;9.69;100.00
49341;BME280;35209;51.050;13.678;2024-02-15T08:22:41;151132.72;;;9.78;100.00
49341;BME280;35209;51.050;13.678;2024-02-15T08:27:48;151090.19;;;9.61;100.00
49341;BME280;35209;51.050;13.678;2024-02-15T08:32:52;151090.19;;;9.61;100.00
49341;BME280;35209;51.050;13.678;2024-02-15T08:37:56;151161.13;;;9.89;100.00
49341;BME280;35209;51.050;13.678;2024-02-15T08:43:00;151220.50;;;10.13;100.00
49341;BME280;35209;51.050;13.678;2024-02-15T08:48:01;151260.56;;;10.28;100.00
49341;BME280;35209;51.050;13.678;2024-02-15T08:53:06;151363.84;;;10.69;100.00
49341;BME280;35209;51.050;13.678;2024-02-15T08:58:08;151332.84;;;10.57;100.00
49341;BME280;35209;51.050;13.678;2024-02-15T09:03:11;151345.75;;;10.62;100.00
49341;BME280;35209;51.050;13.678;2024-02-15T09:08:14;151407.75;;;10.86;100.00
49341;BME280;35209;51.050;13.678;2024-02-15T09:13:17;151423.25;;;10.93;100.00
49341;BME280;35209;51.050;13.678;2024-02-15T09:18:18;151447.81;;;11.02;100.00
49341;BME280;35209;51.050;13.678;2024-02-15T09:23:22;151473.63;;;11.13;100.00
49341;BME280;35209;51.050;13.678;2024-02-15T09:28:25;151489.13;;;11.19;100.00
49341;BME280;35209;51.050;13.678;2024-02-15T09:33:27;151613.16;;;11.68;100.00
49341;BME280;35209;51.050;13.678;2024-02-15T09:38:29;151668.78;;;11.90;100.00
49341;BME280;35209;51.050;13.678;2024-02-15T09:43:31;151644.19;;;11.80;100.00
49341;BME280;35209;51.050;13.678;2024-02-15T09:48:34;151746.34;;;12.20;100.00
49341;BME280;35209;51.050;13.678;2024-02-15T09:53:36;151829.09;;;12.53;100.00
49341;BME280;35209;51.050;13.678;2024-02-15T09:58:38;151874.38;;;12.71;100.00
49341;BME280;35209;51.050;13.678;2024-02-15T10:03:41;151873.03;;;12.70;100.00
49341;BME280;35209;51.050;13.678;2024-02-15T10:08:43;151875.66;;;12.71;100.00
49341;BME280;35209;51.050;13.678;2024-02-15T10:13:45;151923.50;;;12.90;98.08
49341;BME280;35209;51.050;13.678;2024-02-15T10:18:48;151914.44;;;12.86;100.00
49341;BME280;35209;51.050;13.678;2024-02-15T10:24:10;151961.00;;;13.05;98.62
49341;BME280;35209;51.050;13.678;2024-02-15T10:29:12;151946.78;;;12.99;100.00
49341;BME280;35209;51.050;13.678;2024-02-15T10:34:16;152028.31;;;13.31;96.51
49341;BME280;35209;51.050;13.678;2024-02-15T10:39:20;152041.25;;;13.36;96.06
49341;BME280;35209;51.050;13.678;2024-02-15T10:44:23;152036.09;;;13.34;95.70
49341;BME280;35209;51.050;13.678;2024-02-15T10:49:26;152037.38;;;13.35;97.81
49341;BME280;35209;51.050;13.678;2024-02-15T10:54:47;152078.78;;;13.51;94.56
49341;BME280;35209;51.050;13.678;2024-02-15T10:59:59;152093.03;;;13.57;96.02
49341;BME280;35209;51.050;13.678;2024-02-15T11:05:18;152108.53;;;13.63;92.98
49341;BME280;35209;51.050;13.678;2024-02-15T11:10:25;152082.66;;;13.53;92.30
49341;BME280;35209;51.050;13.678;2024-02-15T11:15:47;152080.09;;;13.52;93.93
49341;BME280;35209;51.050;13.678;2024-02-15T11:20:53;152171.97;;;13.88;92.54
49341;BME280;35209;51.050;13.678;2024-02-15T11:25:57;152184.91;;;13.93;91.74
49341;BME280;35209;51.050;13.678;2024-02-15T11:31:02;152162.91;;;13.84;90.38
49341;BME280;35209;51.050;13.678;2024-02-15T11:36:11;152179.75;;;13.91;93.57
49341;BME280;35209;51.050;13.678;2024-02-15T11:41:18;152304.03;;;14.40;88.22
49341;BME280;35209;51.050;13.678;2024-02-15T11:46:20;152341.59;;;14.55;88.00
49341;BME280;35209;51.050;13.678;2024-02-15T11:51:29;152377.84;;;14.69;87.34
49341;BME280;35209;51.050;13.678;2024-02-15T12:01:51;152328.66;;;14.50;88.46
49341;BME280;35209;51.050;13.678;2024-02-15T12:07:14;152332.53;;;14.51;86.87
49341;BME280;35209;51.050;13.678;2024-02-15T12:12:34;152294.94;;;14.36;88.71
49341;BME280;35209;51.050;13.678;2024-02-15T12:17:55;152279.44;;;14.30;89.15
49341;BME280;35209;51.050;13.678;2024-02-15T12:23:16;152265.16;;;14.25;92.36
49341;BME280;35209;51.050;13.678;2024-02-15T12:28:19;152293.66;;;14.36;90.23
49341;BME280;35209;51.050;13.678;2024-02-15T12:33:21;152335.16;;;14.52;86.52
49341;BME280;35209;51.050;13.678;2024-02-15T12:38:23;152316.97;;;14.45;88.26
49341;BME280;35209;51.050;13.678;2024-02-15T12:43:25;152316.97;;;14.45;88.15
49341;BME280;35209;51.050;13.678;2024-02-15T12:48:28;152323.47;;;14.48;86.24
49341;BME280;35209;51.050;13.678;2024-02-15T12:53:29;152305.31;;;14.41;88.17
49341;BME280;35209;51.050;13.678;2024-02-15T12:58:31;152291.09;;;14.35;86.49
49341;BME280;35209;51.050;13.678;2024-02-15T13:03:33;152324.78;;;14.48;86.47
49341;BME280;35209;51.050;13.678;2024-02-15T13:08:35;152355.84;;;14.60;86.92
49341;BME280;35209;51.050;13.678;2024-02-15T13:13:37;152399.88;;;14.78;82.71
49341;BME280;35209;51.050;13.678;2024-02-15T13:18:39;152394.72;;;14.76;83.54
49341;BME280;35209;51.050;13.678;2024-02-15T13:23:42;152372.69;;;14.67;85.22
49341;BME280;35209;51.050;13.678;2024-02-15T13:28:44;152412.81;;;14.83;83.68
49341;BME280;35209;51.050;13.678;2024-02-15T13:33:46;152467.22;;;15.04;81.66
49341;BME280;35209;51.050;13.678;2024-02-15T13:38:49;152506.13;;;15.20;79.22
49341;BME280;35209;51.050;13.678;2024-02-15T13:43:53;152469.84;;;15.05;81.60
49341;BME280;35209;51.050;13.678;2024-02-15T13:48:55;152486.66;;;15.12;80.62
49341;BME280;35209;51.050;13.678;2024-02-15T13:53:57;152512.56;;;15.22;79.02
49341;BME280;35209;51.050;13.678;2024-02-15T13:58:59;152554.03;;;15.38;76.19
49341;BME280;35209;51.050;13.678;2024-02-15T14:04:06;152526.84;;;15.28;78.88
49341;BME280;35209;51.050;13.678;2024-02-15T14:09:08;152544.97;;;15.35;79.09
49341;BME280;35209;51.050;13.678;2024-02-15T14:14:12;152577.38;;;15.48;77.36
49341;BME280;35209;51.050;13.678;2024-02-15T14:19:14;152522.94;;;15.26;78.25
49341;BME280;35209;51.050;13.678;2024-02-15T14:24:16;152552.75;;;15.38;76.94
49341;BME280;35209;51.050;13.678;2024-02-15T14:29:20;152524.22;;;15.27;77.37
49341;BME280;35209;51.050;13.678;2024-02-15T14:34:24;152455.56;;;15.00;79.85
49341;BME280;35209;51.050;13.678;2024-02-15T14:39:27;152486.66;;;15.12;78.12
49341;BME280;35209;51.050;13.678;2024-02-15T14:44:29;152458.19;;;15.01;78.87
49341;BME280;35209;51.050;13.678;2024-02-15T14:49:31;152427.09;;;14.88;79.73
49341;BME280;35209;51.050;13.678;2024-02-15T14:54:33;152398.59;;;14.77;80.28
49341;BME280;35209;51.050;13.678;2024-02-15T14:59:35;152428.38;;;14.89;79.15
49341;BME280;35209;51.050;13.678;2024-02-15T15:04:38;152358.47;;;14.61;81.11
49341;BME280;35209;51.050;13.678;2024-02-15T15:10:10;152410.25;;;14.82;80.03
49341;BME280;35209;51.050;13.678;2024-02-15T15:15:30;152351.97;;;14.59;82.51
49341;BME280;35209;51.050;13.678;2024-02-15T15:20:32;152332.53;;;14.51;82.67
49341;BME280;35209;51.050;13.678;2024-02-15T15:25:35;152285.88;;;14.33;83.94
49341;BME280;35209;51.050;13.678;2024-02-15T15:30:38;152270.34;;;14.27;84.45
49341;BME280;35209;51.050;13.678;2024-02-15T15:35:40;152254.78;;;14.21;85.18
49341;BME280;35209;51.050;13.678;2024-02-15T15:40:42;152287.16;;;14.33;83.98
49341;BME280;35209;51.050;13.678;2024-02-15T15:45:45;152227.63;;;14.10;85.15
49341;BME280;35209;51.050;13.678;2024-02-15T15:50:46;152210.81;;;14.03;89.80
49341;BME280;35209;51.050;13.678;2024-02-15T15:55:50;152164.19;;;13.85;93.71
49341;BME280;35209;51.050;13.678;2024-02-15T16:00:52;152149.97;;;13.79;95.00
49341;BME280;35209;51.050;13.678;2024-02-15T16:05:54;152073.59;;;13.49;97.43
49341;BME280;35209;51.050;13.678;2024-02-15T16:10:56;152047.72;;;13.39;98.82
49341;BME280;35209;51.050;13.678;2024-02-15T16:15:59;152055.50;;;13.42;98.21
49341;BME280;35209;51.050;13.678;2024-02-15T16:21:01;152074.88;;;13.50;97.64
49341;BME280;35209;51.050;13.678;2024-02-15T16:26:04;152034.78;;;13.34;98.64
49341;BME280;35209;51.050;13.678;2024-02-15T16:31:07;152024.44;;;13.30;98.77
49341;BME280;35209;51.050;13.678;2024-02-15T16:36:09;151989.47;;;13.16;100.00
49341;BME280;35209;51.050;13.678;2024-02-15T16:41:11;151968.75;;;13.08;100.00
49341;BME280;35209;51.050;13.678;2024-02-15T16:46:13;151935.13;;;12.95;100.00
49341;BME280;35209;51.050;13.678;2024-02-15T16:51:14;151842.03;;;12.58;100.00
49341;BME280;35209;51.050;13.678;2024-02-15T16:56:20;151764.44;;;12.27;100.00
49341;BME280;35209;51.050;13.678;2024-02-15T17:01:26;151751.53;;;12.22;100.00
49341;BME280;35209;51.050;13.678;2024-02-15T17:06:28;151706.28;;;12.04;100.00
49341;BME280;35209;51.050;13.678;2024-02-15T17:11:31;151648.03;;;11.81;100.00
49341;BME280;35209;51.050;13.678;2024-02-15T17:16:32;151626.06;;;11.73;100.00
49341;BME280;35209;51.050;13.678;2024-02-15T17:21:39;151655.84;;;11.84;100.00
49341;BME280;35209;51.050;13.678;2024-02-15T17:26:45;151614.44;;;11.68;100.00
49341;BME280;35209;51.050;13.678;2024-02-15T17:31:49;151543.38;;;11.40;100.00
49341;BME280;35209;51.050;13.678;2024-02-15T17:36:51;151504.66;;;11.25;100.00
49341;BME280;35209;51.050;13.678;2024-02-15T17:41:53;151474.91;;;11.13;100.00
49341;BME280;35209;51.050;13.678;2024-02-15T17:46:55;151445.19;;;11.01;100.00
49341;BME280;35209;51.050;13.678;2024-02-15T17:51:58;151423.25;;;10.93;100.00
49341;BME280;35209;51.050;13.678;2024-02-15T17:57:00;151383.22;;;10.77;100.00
49341;BME280;35209;51.050;13.678;2024-02-15T18:02:02;151407.75;;;10.86;100.00
49341;BME280;35209;51.050;13.678;2024-02-15T18:07:04;151452.97;;;11.04;100.00
49341;BME280;35209;51.050;13.678;2024-02-15T18:12:06;151425.88;;;10.94;100.00
49341;BME280;35209;51.050;13.678;2024-02-15T18:17:08;151397.44;;;10.82;100.00
49341;BME280;35209;51.050;13.678;2024-02-15T18:22:10;151385.81;;;10.78;100.00
49341;BME280;35209;51.050;13.678;2024-02-15T18:27:12;151356.09;;;10.66;100.00
49341;BME280;35209;51.050;13.678;2024-02-15T18:32:14;151316.09;;;10.50;100.00
49341;BME280;35209;51.050;13.678;2024-02-15T18:37:18;151309.63;;;10.48;100.00
49341;BME280;35209;51.050;13.678;2024-02-15T18:42:20;151295.44;;;10.42;100.00
49341;BME280;35209;51.050;13.678;2024-02-15T18:47:26;151256.66;;;10.27;100.00
49341;BME280;35209;51.050;13.678;2024-02-15T18:52:28;151265.72;;;10.30;100.00
49341;BME280;35209;51.050;13.678;2024-02-15T18:57:31;151287.66;;;10.39;100.00
49341;BME280;35209;51.050;13.678;2024-02-15T19:02:32;151313.53;;;10.49;100.00
49341;BME280;35209;51.050;13.678;2024-02-15T19:07:35;151283.81;;;10.38;100.00
49341;BME280;35209;51.050;13.678;2024-02-15T19:12:37;151234.72;;;10.18;100.00
49341;BME280;35209;51.050;13.678;2024-02-15T19:17:40;151186.94;;;9.99;100.00
49341;BME280;35209;51.050;13.678;2024-02-15T19:22:42;151246.34;;;10.23;100.00
49341;BME280;35209;51.050;13.678;2024-02-15T19:27:44;151215.34;;;10.10;100.00
49341;BME280;35209;51.050;13.678;2024-02-15T19:32:50;151215.34;;;10.10;100.00
49341;BME280;35209;51.050;13.678;2024-02-15T19:37:52;151234.72;;;10.18;100.00
49341;BME280;35209;51.050;13.678;2024-02-15T19:42:54;151259.28;;;10.28;100.00
49341;BME280;35209;51.050;13.678;2024-02-15T19:47:57;151199.84;;;10.04;100.00
49341;BME280;35209;51.050;13.678;2024-02-15T19:52:59;151190.84;;;10.01;100.00
49341;BME280;35209;51.050;13.678;2024-02-15T19:58:01;151230.81;;;10.17;100.00
49341;BME280;35209;51.050;13.678;2024-02-15T20:03:04;151210.16;;;10.08;100.00
49341;BME280;35209;51.050;13.678;2024-02-15T20:08:06;151139.19;;;9.80;100.00
49341;BME280;35209;51.050;13.678;2024-02-15T20:13:09;151074.66;;;9.55;100.00
49341;BME280;35209;51.050;13.678;2024-02-15T20:18:11;151079.84;;;9.57;100.00
49341;BME280;35209;51.050;13.678;2024-02-15T20:23:12;151056.63;;;9.48;100.00
49341;BME280;35209;51.050;13.678;2024-02-15T20:28:14;151130.16;;;9.77;100.00
49341;BME280;35209;51.050;13.678;2024-02-15T20:33:16;151092.75;;;9.62;100.00
49341;BME280;35209;51.050;13.678;2024-02-15T20:38:20;151073.38;;;9.54;100.00
49341;BME280;35209;51.050;13.678;2024-02-15T20:43:25;151068.25;;;9.52;100.00
49341;BME280;35209;51.050;13.678;2024-02-15T20:48:28;151023.09;;;9.34;100.00
49341;BME280;35209;51.050;13.678;2024-02-15T20:53:30;150989.56;;;9.21;100.00
49341;BME280;35209;51.050;13.678;2024-02-15T20:58:32;151011.50;;;9.30;100.00
49341;BME280;35209;51.050;13.678;2024-02-15T21:03:34;150984.38;;;9.19;100.00
49341;BME280;35209;51.050;13.678;2024-02-15T21:08:37;150958.59;;;9.09;100.00
49341;BME280;35209;51.050;13.678;2024-02-15T21:13:39;150959.88;;;9.09;100.00
49341;BME280;35209;51.050;13.678;2024-02-15T21:18:47;151001.16;;;9.26;100.00
49341;BME280;35209;51.050;13.678;2024-02-15T21:23:49;150965.03;;;9.12;100.00
49341;BME280;35209;51.050;13.678;2024-02-15T21:28:52;150913.47;;;8.91;100.00
49341;BME280;35209;51.050;13.678;2024-02-15T21:33:55;150932.81;;;8.99;100.00
49341;BME280;35209;51.050;13.678;2024-02-15T21:38:59;150887.69;;;8.81;100.00
49341;BME280;35209;51.050;13.678;2024-02-15T21:44:01;150921.22;;;8.94;100.00
49341;BME280;35209;51.050;13.678;2024-02-15T21:49:08;150934.09;;;8.99;100.00
49341;BME280;35209;51.050;13.678;2024-02-15T21:54:12;150912.19;;;8.91;100.00
49341;BME280;35209;51.050;13.678;2024-02-15T21:59:14;150878.66;;;8.77;100.00
49341;BME280;35209;51.050;13.678;2024-02-15T22:04:17;150904.44;;;8.88;100.00
49341;BME280;35209;51.050;13.678;2024-02-15T22:09:19;150892.81;;;8.83;100.00
49341;BME280;35209;51.050;13.678;2024-02-15T22:14:20;150864.44;;;8.72;100.00
49341;BME280;35209;51.050;13.678;2024-02-15T22:19:22;150834.81;;;8.60;100.00
49341;BME280;35209;51.050;13.678;2024-02-15T22:24:25;150825.78;;;8.56;100.00
49341;BME280;35209;51.050;13.678;2024-02-15T22:29:27;150788.41;;;8.42;100.00
49341;BME280;35209;51.050;13.678;2024-02-15T22:34:29;150856.72;;;8.69;100.00
49341;BME280;35209;51.050;13.678;2024-02-15T22:39:31;150740.63;;;8.23;100.00
49341;BME280;35209;51.050;13.678;2024-02-15T22:44:33;150756.13;;;8.29;100.00
49341;BME280;35209;51.050;13.678;2024-02-15T22:49:36;150749.66;;;8.26;100.00
49341;BME280;35209;51.050;13.678;2024-02-15T22:54:38;150682.66;;;8.00;100.00
49341;BME280;35209;51.050;13.678;2024-02-15T22:59:44;150673.63;;;7.96;100.00
49341;BME280;35209;51.050;13.678;2024-02-15T23:04:46;150664.63;;;7.93;100.00
49341;BME280;35209;51.050;13.678;2024-02-15T23:09:49;150649.16;;;7.87;100.00
49341;BME280;35209;51.050;13.678;2024-02-15T23:14:50;150618.22;;;7.74;100.00
49341;BME280;35209;51.050;13.678;2024-02-15T23:19:52;150615.66;;;7.73;100.00
49341;BME280;35209;51.050;13.678;2024-02-15T23:24:55;150560.25;;;7.51;100.00
49341;BME280;35209;51.050;13.678;2024-02-15T23:29:58;150540.97;;;7.44;100.00
49341;BME280;35209;51.050;13.678;2024-02-15T23:35:00;150544.81;;;7.45;100.00
49341;BME280;35209;51.050;13.678;2024-02-15T23:40:03;150528.03;;;7.39;100.00
49341;BME280;35209;51.050;13.678;2024-02-15T23:45:21;150531.94;;;7.40;100.00
49341;BME280;35209;51.050;13.678;2024-02-15T23:50:24;150551.22;;;7.48;100.00
49341;BME280;35209;51.050;13.678;2024-02-15T23:55:28;150540.97;;;7.44;100.00
